Time;durP1;ratioP1;P1;durP2;ratioP2;P2;SDS_P1;SDS_P2;PMS_P1;PMS_P2;Temp;Humidity;BMP_temperature;BMP_pressure;BME280_temperature;BME280_humidity;BME280_pressure;Samples;Min_cycle;Max_cycle;Signal;HPM_P1;HPM_P2
2022/01/06 00:00:32;;;;;;;13.20;1.80;;;;;;;3.97;81.98;101479.72;5077096;28;20064;-66
2022/01/06 00:02:58;;;;;;;12.52;2.15;;;;;;;4.06;82.30;101478.94;5077580;28;20417;-66
2022/01/06 00:05:23;;;;;;;19.75;2.10;;;;;;;4.06;81.11;101480.69;5077507;28;20016;-67
2022/01/06 00:07:49;;;;;;;12.05;2.22;;;;;;;3.98;82.32;101477.97;5077497;28;20529;-67
2022/01/06 00:10:15;;;;;;;11.23;2.08;;;;;;;3.92;82.62;101488.69;5077384;28;20500;-67
2022/01/06 00:13:28;;;;;;;12.80;2.17;;;;;;;3.97;81.20;101495.06;5077338;28;20122;-67
2022/01/06 00:15:36;;;;;;;17.38;2.42;;;;;;;4.00;81.56;101491.41;5084415;28;20469;-66
2022/01/06 00:25:42;;;;;;;11.32;2.10;;;;;;;3.94;81.77;101497.88;5095539;28;20032;-67
2022/01/06 00:28:07;;;;;;;13.50;2.10;;;;;;;3.90;82.48;101496.47;5077162;28;20070;-66
2022/01/06 00:30:33;;;;;;;16.58;2.30;;;;;;;3.96;81.13;101495.97;5076941;28;20026;-66
2022/01/06 00:32:58;;;;;;;13.07;2.40;;;;;;;3.90;82.48;101496.47;5095404;28;20066;-66
2022/01/06 00:35:23;;;;;;;15.07;1.85;;;;;;;3.84;82.73;101505.47;5076747;28;20471;-67
2022/01/06 00:37:48;;;;;;;12.48;2.08;;;;;;;3.83;82.24;101500.50;5076824;28;20023;-67
2022/01/06 00:40:14;;;;;;;15.05;2.08;;;;;;;3.91;80.87;101513.44;5094986;28;20081;-67
2022/01/06 00:42:41;;;;;;;25.13;2.20;;;;;;;3.91;81.50;101497.28;5076807;28;20028;-66
2022/01/06 00:45:07;;;;;;;13.38;2.45;;;;;;;3.92;81.36;101497.19;5094892;28;20435;-66
2022/01/06 00:47:32;;;;;;;20.17;2.65;;;;;;;3.83;82.37;101503.06;5095129;28;20034;-66
2022/01/06 00:49:57;;;;;;;15.18;2.42;;;;;;;3.81;81.87;101504.91;5076608;28;20024;-67
2022/01/06 00:52:23;;;;;;;13.73;2.10;;;;;;;3.86;82.48;101505.34;5094987;28;20024;-67
2022/01/06 00:54:48;;;;;;;15.98;2.13;;;;;;;3.77;82.59;101506.06;5094441;28;20027;-67
2022/01/06 00:57:13;;;;;;;17.15;2.70;;;;;;;3.76;81.43;101502.72;5094954;28;20082;-67
2022/01/06 00:59:39;;;;;;;20.95;2.55;;;;;;;3.80;81.96;101506.66;5076398;28;20359;-66
2022/01/06 01:02:04;;;;;;;10.75;2.13;;;;;;;3.76;82.49;101505.28;5095128;28;20063;-67
2022/01/06 01:04:29;;;;;;;16.30;2.20;;;;;;;3.71;82.42;101514.25;5076331;28;20520;-66
2022/01/06 01:06:55;;;;;;;15.63;2.05;;;;;;;3.75;81.40;101513.09;5094447;28;20027;-67
2022/01/06 01:09:20;;;;;;;11.98;2.03;;;;;;;3.67;81.95;101521.38;5094967;28;20031;-67
2022/01/06 01:11:45;;;;;;;11.55;2.03;;;;;;;3.65;82.37;101522.41;5075790;28;20024;-66
2022/01/06 01:14:18;;;;;;;16.88;2.08;;;;;;;3.57;82.46;101521.31;5075937;28;20115;-67
2022/01/06 01:16:53;;;;;;;;;;;;;;;3.58;82.65;101527.22;5076515;28;20067;-67
2022/01/06 01:19:18;;;;;;;13.32;2.33;;;;;;;3.49;83.18;101533.06;5094309;28;20006;-67
2022/01/06 01:21:45;;;;;;;16.60;1.80;;;;;;;3.55;82.34;101535.13;5094140;28;20419;-67
2022/01/06 01:24:10;;;;;;;14.05;2.67;;;;;;;3.49;82.45;101540.72;5094430;28;20020;-66
2022/01/06 01:26:35;;;;;;;12.15;1.80;;;;;;;3.51;83.65;101551.63;5094100;28;20026;-67
2022/01/06 01:29:01;;;;;;;14.30;2.72;;;;;;;3.43;83.18;101559.91;5094101;28;20020;-67
2022/01/06 01:31:30;;;;;;;16.30;2.20;;;;;;;3.44;82.83;101568.38;5094049;28;20023;-67
2022/01/06 01:33:58;;;;;;;11.52;1.83;;;;;;;3.37;83.57;101568.06;5094239;28;20057;-67
2022/01/06 01:36:24;;;;;;;16.77;2.42;;;;;;;3.47;82.58;101573.25;5075855;28;20032;-67
2022/01/06 01:38:49;;;;;;;14.20;1.90;;;;;;;3.43;83.11;101580.34;5093933;28;20024;-67
2022/01/06 01:41:16;;;;;;;16.90;1.95;;;;;;;3.45;82.60;101583.59;5093942;28;20402;-67
2022/01/06 01:43:42;;;;;;;20.48;3.10;;;;;;;3.47;82.50;101581.72;5093931;28;20098;-67
2022/01/06 01:46:11;;;;;;;21.95;3.17;;;;;;;3.43;82.79;101582.09;5093818;28;20020;-67
2022/01/06 01:48:40;;;;;;;19.58;2.03;;;;;;;3.40;83.90;101580.59;5075625;28;20028;-67
2022/01/06 01:51:08;;;;;;;16.17;2.42;;;;;;;3.41;83.00;101576.28;5093722;28;20027;-67
2022/01/06 01:53:34;;;;;;;13.45;2.80;;;;;;;3.39;83.70;101578.97;5075464;28;20020;-67
2022/01/06 01:55:59;;;;;;;17.23;2.53;;;;;;;3.27;84.57;101590.16;5093463;28;20044;-67
2022/01/06 01:58:25;;;;;;;18.42;2.08;;;;;;;3.26;84.15;101585.97;5075558;28;20031;-67
2022/01/06 02:00:50;;;;;;;20.75;2.50;;;;;;;3.27;84.66;101585.84;5093646;28;20028;-67
2022/01/06 02:03:16;;;;;;;17.52;2.03;;;;;;;3.24;84.37;101587.81;5093552;28;20024;-67
2022/01/06 02:05:41;;;;;;;15.20;2.47;;;;;;;3.22;84.92;101598.16;5093587;28;20486;-67
2022/01/06 02:08:06;;;;;;;15.63;2.25;;;;;;;3.19;84.48;101595.84;5093861;28;20028;-68
2022/01/06 02:10:33;;;;;;;13.18;2.00;;;;;;;3.28;84.27;101604.53;5075374;28;20039;-67
2022/01/06 02:13:00;;;;;;;11.93;2.25;;;;;;;3.28;83.99;101607.91;5093472;28;20371;-67
2022/01/06 02:15:27;;;;;;;19.27;2.10;;;;;;;3.28;84.40;101610.47;5093422;28;20024;-67
2022/01/06 02:17:52;;;;;;;13.45;2.00;;;;;;;3.28;84.92;101597.69;5075333;28;20413;-67
2022/01/06 02:20:20;;;;;;;15.00;2.28;;;;;;;3.20;84.89;101617.91;5075364;28;20027;-67
2022/01/06 02:22:46;;;;;;;17.20;2.50;;;;;;;3.14;85.11;101611.53;5075294;28;20034;-67
2022/01/06 02:25:16;;;;;;;16.00;2.08;;;;;;;3.14;85.10;101608.97;5095593;28;20016;-66
2022/01/06 02:27:43;;;;;;;10.73;1.80;;;;;;;3.12;84.54;101615.94;5079420;28;20134;-67
2022/01/06 02:30:10;;;;;;;13.40;2.03;;;;;;;3.13;85.21;101619.31;5098260;28;20028;-66
2022/01/06 02:32:35;;;;;;;15.60;1.98;;;;;;;3.17;84.67;101608.75;5079191;28;20020;-67
2022/01/06 02:35:13;;;;;;;18.45;2.30;;;;;;;3.19;84.53;101613.72;5097350;28;20098;-66
2022/01/06 02:37:39;;;;;;;14.90;2.15;;;;;;;3.23;85.67;101612.56;5097406;28;20039;-66
2022/01/06 02:40:16;;;;;;;13.57;2.40;;;;;;;3.08;85.42;101613.72;5079032;28;20016;-67
2022/01/06 02:42:53;;;;;;;15.02;1.90;;;;;;;3.04;85.14;101618.25;5079088;28;20028;-66
2022/01/06 02:45:20;;;;;;;13.38;1.73;;;;;;;2.89;85.91;101612.59;5079011;28;20020;-66
2022/01/06 02:47:48;;;;;;;10.52;1.85;;;;;;;2.78;86.45;101615.13;5097168;28;20482;-66
2022/01/06 02:50:16;;;;;;;11.05;1.98;;;;;;;2.70;86.82;101628.50;5097052;28;20090;-66
2022/01/06 02:52:41;;;;;;;17.13;2.80;;;;;;;2.54;87.10;101616.97;5097356;28;20024;-66
2022/01/06 02:55:09;;;;;;;11.00;2.05;;;;;;;2.56;87.42;101631.25;5097018;28;20044;-66
2022/01/06 02:57:34;;;;;;;11.70;2.42;;;;;;;2.51;87.53;101628.22;5096976;28;20024;-67
2022/01/06 03:00:00;;;;;;;12.98;1.83;;;;;;;2.51;87.63;101624.88;5096868;28;20051;-67
2022/01/06 03:02:26;;;;;;;14.80;1.83;;;;;;;2.39;87.17;101606.19;5078724;28;20463;-67
2022/01/06 03:04:52;;;;;;;15.48;2.30;;;;;;;2.43;87.57;101610.13;5095543;28;20023;-67
2022/01/06 03:07:17;;;;;;;15.10;2.13;;;;;;;2.66;87.32;101633.94;5096759;28;20070;-67
2022/01/06 03:09:43;;;;;;;17.33;2.75;;;;;;;2.77;86.46;101631.38;5078534;28;20125;-67
2022/01/06 03:12:20;;;;;;;18.90;2.20;;;;;;;2.80;86.88;101633.72;5096994;28;20024;-67
2022/01/06 03:14:45;;;;;;;17.75;2.20;;;;;;;2.81;86.75;101637.06;5096712;28;20024;-67
2022/01/06 03:17:11;;;;;;;14.93;2.70;;;;;;;2.85;86.29;101631.63;5096563;28;20027;-67
2022/01/06 03:19:36;;;;;;;19.10;2.25;;;;;;;2.95;85.95;101629.19;5096614;28;20024;-67
2022/01/06 03:22:02;;;;;;;10.63;1.50;;;;;;;2.93;86.14;101636.97;5096561;28;20351;-67
2022/01/06 03:24:27;;;;;;;15.88;2.58;;;;;;;2.89;86.00;101638.13;5096401;28;20074;-66
2022/01/06 03:26:53;;;;;;;11.38;1.70;;;;;;;2.82;86.95;101642.06;5096610;28;20028;-66
2022/01/06 03:29:18;;;;;;;13.98;1.73;;;;;;;2.84;86.71;101634.28;5078532;28;20032;-66
2022/01/06 03:31:43;;;;;;;11.30;1.85;;;;;;;2.82;86.71;101636.13;5097146;28;20023;-67
2022/01/06 03:34:09;;;;;;;11.18;2.20;;;;;;;2.81;86.71;101631.97;5078680;28;20040;-67
2022/01/06 03:36:35;;;;;;;10.48;1.83;;;;;;;2.82;86.54;101638.69;5096636;28;20055;-66
2022/01/06 03:39:01;;;;;;;18.70;1.98;;;;;;;2.76;86.86;101639.94;5079092;28;20047;-67
2022/01/06 03:41:26;;;;;;;15.70;2.20;;;;;;;2.85;86.62;101651.22;5097652;28;20024;-70
2022/01/06 03:43:51;;;;;;;13.75;2.50;;;;;;;2.85;85.58;101638.44;5107090;28;20020;-69
2022/01/06 03:46:16;;;;;;;14.18;2.03;;;;;;;2.90;85.91;101638.94;5108643;28;20035;-68
2022/01/06 03:48:42;;;;;;;13.85;2.10;;;;;;;2.90;86.59;101642.28;5110010;28;20024;-67
2022/01/06 03:51:07;;;;;;;15.00;1.85;;;;;;;2.91;86.25;101649.03;5109248;28;20024;-69
2022/01/06 03:53:32;;;;;;;9.82;1.70;;;;;;;2.86;86.72;101642.66;5108586;28;20487;-69
2022/01/06 03:55:58;;;;;;;13.75;2.50;;;;;;;2.74;87.08;101638.47;5110311;28;20044;-69
2022/01/06 03:58:23;;;;;;;11.65;1.85;;;;;;;2.68;86.92;101655.84;5107579;28;20028;-68
2022/01/06 04:00:48;;;;;;;11.88;2.13;;;;;;;2.58;86.99;101654.91;5080852;28;20106;-67
2022/01/06 04:03:14;;;;;;;9.80;1.73;;;;;;;2.60;87.07;101658.16;5096732;28;20055;-66
2022/01/06 04:05:39;;;;;;;16.58;2.03;;;;;;;2.57;87.89;101658.38;5097762;28;20016;-66
2022/01/06 04:08:04;;;;;;;18.83;2.38;;;;;;;2.54;87.46;101665.47;5097709;28;20028;-66
2022/01/06 04:10:30;;;;;;;14.18;1.80;;;;;;;2.45;87.78;101649.09;5079145;28;20111;-67
2022/01/06 04:12:55;;;;;;;19.67;1.98;;;;;;;2.53;87.79;101656.16;5078257;28;20490;-67
2022/01/06 04:15:23;;;;;;;12.55;1.88;;;;;;;2.57;87.71;101667.78;5096425;28;20475;-66
2022/01/06 04:17:48;;;;;;;12.27;2.17;;;;;;;2.44;88.16;101660.19;5096275;28;20020;-66
2022/01/06 04:20:14;;;;;;;11.55;2.03;;;;;;;2.42;88.41;101664.63;5077639;28;20054;-67
2022/01/06 04:22:39;;;;;;;13.23;2.13;;;;;;;2.55;88.37;101661.97;5096108;28;20082;-67
2022/01/06 04:25:05;;;;;;;11.38;1.85;;;;;;;2.62;87.78;101670.81;5095446;28;20124;-66
2022/01/06 04:27:31;;;;;;;10.57;1.88;;;;;;;2.61;87.17;101669.97;5095565;28;20036;-66
2022/01/06 04:29:57;;;;;;;16.83;2.30;;;;;;;2.58;87.36;101660.00;5095340;28;20024;-66
2022/01/06 04:32:22;;;;;;;13.50;2.45;;;;;;;2.67;87.11;101681.47;5077017;28;20085;-66
2022/01/06 04:34:47;;;;;;;17.38;2.42;;;;;;;2.45;87.46;101685.63;5095352;28;20032;-66
2022/01/06 04:37:13;;;;;;;17.85;2.47;;;;;;;2.43;87.28;101677.25;5094969;28;20051;-67
2022/01/06 04:39:38;;;;;;;12.48;2.25;;;;;;;2.34;87.34;101675.38;5076700;28;20120;-67
2022/01/06 04:42:03;;;;;;;8.20;1.85;;;;;;;2.31;87.62;101685.81;5076704;28;20375;-66
2022/01/06 04:44:29;;;;;;;18.42;2.30;;;;;;;2.13;88.30;101689.66;5076703;28;20466;-66
2022/01/06 04:46:54;;;;;;;15.57;2.30;;;;;;;2.05;88.86;101692.78;5093924;28;20016;-66
2022/01/06 04:49:19;;;;;;;21.00;2.70;;;;;;;2.11;89.47;101701.72;5094695;28;20024;-65
2022/01/06 04:51:45;;;;;;;12.02;2.22;;;;;;;2.12;88.79;101700.78;5094740;28;20016;-66
2022/01/06 04:54:11;;;;;;;14.30;2.53;;;;;;;2.17;88.86;101694.44;5094473;28;20360;-66
2022/01/06 04:56:37;;;;;;;11.60;2.97;;;;;;;2.33;88.74;101693.34;5094475;28;20048;-66
2022/01/06 04:59:04;;;;;;;13.77;2.33;;;;;;;2.28;88.02;101697.97;5095105;28;20352;-67
2022/01/06 05:01:30;;;;;;;14.15;2.47;;;;;;;2.30;87.89;101712.22;5095160;28;20024;-67
2022/01/06 05:03:55;;;;;;;14.40;2.30;;;;;;;2.27;87.86;101707.34;5076374;28;20378;-67
2022/01/06 05:06:21;;;;;;;9.00;2.20;;;;;;;2.37;88.30;101712.63;5094427;28;20031;-67
2022/01/06 05:08:46;;;;;;;15.13;2.70;;;;;;;2.34;88.36;101710.28;5094348;28;20067;-66
2022/01/06 05:11:11;;;;;;;15.23;2.40;;;;;;;2.32;87.73;101712.13;5094441;28;20028;-67
2022/01/06 05:13:37;;;;;;;14.65;2.20;;;;;;;2.32;88.25;101710.38;5076202;28;20089;-67
2022/01/06 05:16:03;;;;;;;14.20;2.03;;;;;;;2.20;88.33;101718.91;5094339;28;20028;-66
2022/01/06 05:18:29;;;;;;;17.90;2.60;;;;;;;2.22;88.40;101719.63;5094301;28;20024;-66
2022/01/06 05:20:54;;;;;;;14.48;2.47;;;;;;;2.09;88.28;101724.75;5094739;28;20421;-67
2022/01/06 05:23:20;;;;;;;20.38;3.55;;;;;;;1.94;88.64;101725.84;5094394;28;20458;-67
2022/01/06 05:25:45;;;;;;;11.35;3.03;;;;;;;1.92;88.75;101727.69;5094346;28;20016;-67
2022/01/06 05:28:11;;;;;;;13.43;2.60;;;;;;;1.78;88.68;101734.56;5076207;28;20039;-67
2022/01/06 05:30:36;;;;;;;15.85;2.88;;;;;;;1.81;89.46;101736.06;5094085;28;20348;-66
2022/01/06 05:33:01;;;;;;;12.18;2.65;;;;;;;1.78;88.97;101736.28;5093964;28;20386;-66
2022/01/06 05:35:27;;;;;;;12.85;2.22;;;;;;;1.73;88.69;101731.53;5094425;28;20107;-67
2022/01/06 05:37:52;;;;;;;11.70;2.50;;;;;;;1.67;88.93;101736.22;5093935;28;20024;-67
2022/01/06 05:40:17;;;;;;;11.98;2.50;;;;;;;1.62;89.34;101739.09;5094458;28;20451;-67
2022/01/06 05:42:43;;;;;;;9.93;2.55;;;;;;;1.62;89.24;101733.19;5093847;28;20024;-67
2022/01/06 05:45:09;;;;;;;13.18;2.65;;;;;;;1.67;89.32;101738.75;5094048;28;20024;-67
2022/01/06 05:47:34;;;;;;;18.48;3.08;;;;;;;1.93;89.46;101734.44;5075747;28;20035;-67
2022/01/06 05:49:59;;;;;;;17.73;2.50;;;;;;;2.05;89.01;101737.84;5094330;28;20028;-67
2022/01/06 05:52:25;;;;;;;22.73;3.83;;;;;;;2.14;88.95;101732.09;5075374;28;20459;-67
2022/01/06 05:54:50;;;;;;;18.67;2.88;;;;;;;2.12;88.69;101744.13;5093477;28;20070;-67
2022/01/06 05:57:16;;;;;;;8.32;2.28;;;;;;;2.00;89.04;101746.63;5093706;28;20102;-67
2022/01/06 05:59:42;;;;;;;14.73;2.67;;;;;;;1.91;88.89;101746.47;5093495;28;20020;-68
2022/01/06 06:02:07;;;;;;;10.85;2.15;;;;;;;1.83;88.84;101749.53;5075600;28;20020;-67
2022/01/06 06:04:33;;;;;;;15.30;2.72;;;;;;;1.63;88.31;101756.00;5093873;28;20026;-67
2022/01/06 06:06:58;;;;;;;18.23;2.92;;;;;;;1.65;88.85;101758.47;5075730;28;20359;-66
2022/01/06 06:09:24;;;;;;;16.83;2.97;;;;;;;1.69;88.59;101770.88;5093606;28;20498;-68
2022/01/06 06:11:49;;;;;;;16.10;3.05;;;;;;;1.63;89.00;101767.94;5093524;28;20078;-67
2022/01/06 06:14:15;;;;;;;18.00;3.00;;;;;;;1.69;89.72;101770.88;5093641;28;20023;-68
2022/01/06 06:16:40;;;;;;;13.75;2.75;;;;;;;1.86;89.55;101768.91;5093525;28;20050;-66
2022/01/06 06:19:05;;;;;;;17.17;2.63;;;;;;;1.87;89.02;101775.63;5075351;28;20024;-66
2022/01/06 06:21:30;;;;;;;9.98;2.28;;;;;;;1.85;89.78;101783.38;5093508;28;20032;-66
2022/01/06 06:23:56;;;;;;;10.02;2.22;;;;;;;1.68;88.72;101776.88;5093276;28;20107;-68
2022/01/06 06:26:21;;;;;;;12.80;2.55;;;;;;;1.68;89.34;101784.53;5092166;28;20073;-67
2022/01/06 06:28:46;;;;;;;13.73;3.10;;;;;;;1.51;89.00;101790.75;5075290;28;20016;-67
2022/01/06 06:31:12;;;;;;;13.23;2.75;;;;;;;1.53;90.00;101781.28;5093343;28;20496;-67
2022/01/06 06:33:37;;;;;;;12.48;2.67;;;;;;;1.55;89.50;101788.81;5093357;28;20027;-67
2022/01/06 06:36:03;;;;;;;13.55;2.80;;;;;;;1.62;89.29;101789.25;5093418;28;20194;-67
2022/01/06 06:38:28;;;;;;;11.48;2.75;;;;;;;1.81;90.24;101792.16;5093256;28;20114;-68
2022/01/06 06:40:54;;;;;;;10.98;3.53;;;;;;;1.81;89.23;101787.06;5091087;28;20037;-68
2022/01/06 06:43:19;;;;;;;12.60;2.85;;;;;;;1.75;88.91;101787.47;5092981;28;20075;-67
2022/01/06 06:45:44;;;;;;;15.18;2.97;;;;;;;1.68;89.38;101793.91;5093148;28;20030;-67
2022/01/06 06:48:10;;;;;;;9.82;2.55;;;;;;;1.61;89.45;101795.25;5093145;28;20020;-67
2022/01/06 06:50:36;;;;;;;19.83;3.65;;;;;;;1.60;89.24;101798.72;5093201;28;20099;-69
2022/01/06 06:53:02;;;;;;;13.95;3.50;;;;;;;1.58;89.40;101817.47;5093417;28;20020;-67
2022/01/06 06:55:28;;;;;;;10.45;3.10;;;;;;;1.57;89.28;101820.13;5074719;28;20120;-67
2022/01/06 06:57:53;;;;;;;16.63;3.58;;;;;;;1.69;89.37;101821.84;5074941;28;20114;-67
2022/01/06 07:00:18;;;;;;;9.23;3.03;;;;;;;1.80;89.90;101810.91;5093041;28;20058;-67
2022/01/06 07:02:44;;;;;;;10.18;2.95;;;;;;;1.79;89.12;101811.84;5093338;28;20027;-67
2022/01/06 07:05:09;;;;;;;14.35;3.10;;;;;;;1.61;88.87;101821.53;5093126;28;20020;-67
2022/01/06 07:07:35;;;;;;;10.73;2.90;;;;;;;1.63;90.16;101823.97;5092986;28;20107;-67
2022/01/06 07:10:01;;;;;;;13.93;3.40;;;;;;;1.74;89.51;101824.09;5093123;28;20024;-67
2022/01/06 07:12:26;;;;;;;11.27;3.08;;;;;;;1.68;89.27;101827.06;5096079;28;20454;-67
2022/01/06 07:14:52;;;;;;;9.27;2.97;;;;;;;1.63;88.91;101824.78;5095617;28;20146;-67
2022/01/06 07:17:18;;;;;;;18.02;3.53;;;;;;;1.53;89.13;101837.34;5077416;28;20024;-67
2022/01/06 07:19:43;;;;;;;13.73;4.43;;;;;;;1.61;90.04;101829.16;5077728;28;20035;-67
2022/01/06 07:22:08;;;;;;;13.93;4.05;;;;;;;1.60;89.44;101829.28;5096418;28;20498;-68
2022/01/06 07:24:36;;;;;;;17.10;4.55;;;;;;;1.63;89.49;101829.09;5096540;28;20031;-67
2022/01/06 07:27:02;;;;;;;11.50;3.78;;;;;;;1.70;89.83;101841.31;5078190;28;20036;-67
2022/01/06 07:29:28;;;;;;;13.77;3.70;;;;;;;1.72;89.08;101839.47;5096371;28;20035;-66
2022/01/06 07:31:53;;;;;;;15.82;3.67;;;;;;;1.71;89.52;101837.03;5096250;28;20020;-67
2022/01/06 07:34:19;;;;;;;15.38;3.90;;;;;;;1.64;89.37;101831.53;5078055;28;20066;-66
2022/01/06 07:36:44;;;;;;;16.90;5.05;;;;;;;1.57;89.43;101843.84;5078047;28;20386;-66
2022/01/06 07:39:10;;;;;;;16.98;4.80;;;;;;;1.55;89.77;101843.16;5095675;28;20103;-66
2022/01/06 07:41:36;;;;;;;13.52;4.05;;;;;;;1.56;89.78;101839.69;5096341;28;20099;-67
2022/01/06 07:44:05;;;;;;;11.07;3.05;;;;;;;1.63;90.67;101842.63;5077897;28;20031;-67
2022/01/06 07:46:31;;;;;;;11.85;2.85;;;;;;;1.69;90.46;101844.78;5096030;28;20438;-67
2022/01/06 07:48:57;;;;;;;12.18;2.63;;;;;;;1.82;90.25;101849.06;5077787;28;20059;-67
2022/01/06 07:51:28;;;;;;;15.57;3.10;;;;;;;1.96;89.40;101847.19;5096512;28;20027;-67
2022/01/06 07:53:54;;;;;;;14.35;3.10;;;;;;;2.05;89.00;101847.50;5077511;28;20031;-68
2022/01/06 07:56:20;;;;;;;15.27;3.65;;;;;;;2.07;88.60;101843.09;5077497;28;20064;-68
2022/01/06 07:58:45;;;;;;;14.73;3.15;;;;;;;1.84;88.04;101854.84;5077686;28;20111;-68
2022/01/06 08:01:11;;;;;;;14.65;3.30;;;;;;;1.69;88.85;101854.97;5077590;28;20028;-67
2022/01/06 08:03:36;;;;;;;11.63;2.78;;;;;;;1.66;89.27;101857.72;5078423;28;20028;-66
2022/01/06 08:06:02;;;;;;;13.13;3.28;;;;;;;1.75;89.71;101858.84;5077837;28;20093;-67
2022/01/06 08:08:27;;;;;;;9.02;3.00;;;;;;;1.83;88.85;101864.22;5077556;28;20124;-67
2022/01/06 08:10:53;;;;;;;14.10;3.53;;;;;;;1.74;88.78;101849.56;5095627;28;20020;-67
2022/01/06 08:13:18;;;;;;;17.48;4.88;;;;;;;1.75;89.07;101852.00;5077389;28;20055;-67
2022/01/06 08:15:44;;;;;;;14.63;4.10;;;;;;;1.76;88.47;101850.28;5095368;28;20020;-67
2022/01/06 08:18:09;;;;;;;14.00;4.10;;;;;;;1.72;88.95;101857.31;5095435;28;20031;-66
2022/01/06 08:20:36;;;;;;;15.35;3.95;;;;;;;1.70;88.99;101855.81;5094108;28;20024;-66
2022/01/06 08:23:01;;;;;;;8.85;4.05;;;;;;;1.76;88.75;101855.38;5075933;28;20020;-67
2022/01/06 08:25:27;;;;;;;14.32;4.47;;;;;;;1.79;88.59;101853.44;5077035;28;20027;-67
2022/01/06 08:27:52;;;;;;;10.60;4.10;;;;;;;1.80;88.55;101861.91;5077056;28;20027;-66
2022/01/06 08:30:18;;;;;;;15.25;4.30;;;;;;;1.79;88.36;101867.91;5095653;28;20024;-66
2022/01/06 08:32:43;;;;;;;12.40;4.50;;;;;;;1.79;88.71;101865.38;5095493;28;20099;-67
2022/01/06 08:35:08;;;;;;;15.70;4.45;;;;;;;1.82;88.39;101870.25;5076897;28;20034;-67
2022/01/06 08:37:34;;;;;;;13.40;4.53;;;;;;;1.75;87.98;101871.56;5095411;28;20077;-67
2022/01/06 08:40:01;;;;;;;10.32;4.30;;;;;;;1.75;88.01;101867.28;5094916;28;20063;-67
2022/01/06 08:42:26;;;;;;;12.38;4.18;;;;;;;1.82;88.36;101870.25;5076760;28;20054;-67
2022/01/06 08:44:51;;;;;;;13.05;4.15;;;;;;;1.87;88.14;101875.88;5095157;28;20417;-67
2022/01/06 08:47:17;;;;;;;11.30;3.95;;;;;;;2.04;88.07;101872.16;5076664;28;20478;-68
2022/01/06 08:49:42;;;;;;;16.35;4.50;;;;;;;2.12;87.92;101871.66;5076633;28;20114;-67
2022/01/06 08:52:08;;;;;;;12.27;4.07;;;;;;;2.14;87.29;101880.81;5095063;28;20047;-67
2022/01/06 08:54:34;;;;;;;12.43;4.47;;;;;;;2.16;87.39;101881.53;5094469;28;20059;-68
2022/01/06 08:57:00;;;;;;;17.25;5.13;;;;;;;2.22;87.46;101888.78;5094559;28;20044;-67
2022/01/06 08:59:25;;;;;;;13.77;4.50;;;;;;;2.26;87.37;101882.53;5094604;28;20050;-67
2022/01/06 09:01:51;;;;;;;21.58;4.65;;;;;;;2.20;87.68;101885.50;5076195;28;20020;-68
2022/01/06 09:04:20;;;;;;;13.85;4.95;;;;;;;2.30;87.46;101884.88;5076653;28;20157;-68
2022/01/06 09:06:46;;;;;;;12.75;4.57;;;;;;;2.42;86.85;101876.38;5094407;28;20074;-68
2022/01/06 09:09:11;;;;;;;12.88;4.68;;;;;;;2.60;86.67;101877.63;5094347;28;20020;-68
2022/01/06 09:11:36;;;;;;;10.80;4.18;;;;;;;2.74;86.38;101874.13;5076110;28;20524;-68
2022/01/06 09:14:02;;;;;;;13.68;4.40;;;;;;;2.83;85.75;101886.22;5076137;28;20034;-68
2022/01/06 09:16:27;;;;;;;10.50;3.83;;;;;;;3.04;86.12;101896.63;5094332;28;20032;-68
2022/01/06 09:18:52;;;;;;;14.32;4.15;;;;;;;3.22;84.86;101889.38;5094268;28;20113;-68
2022/01/06 09:21:22;;;;;;;11.02;3.30;;;;;;;3.32;85.34;101887.78;5094996;28;20036;-67
2022/01/06 09:23:49;;;;;;;17.65;3.38;;;;;;;3.57;84.78;101894.47;5076019;28;20024;-67
2022/01/06 09:26:14;;;;;;;10.98;3.30;;;;;;;3.55;85.16;101895.50;5076079;28;20510;-67
2022/01/06 09:28:39;;;;;;;10.18;3.13;;;;;;;3.58;85.37;101895.28;5094609;28;20058;-67
2022/01/06 09:31:04;;;;;;;11.35;3.05;;;;;;;3.81;84.32;101896.13;5094030;28;20348;-67
2022/01/06 09:33:30;;;;;;;12.73;2.88;;;;;;;3.93;84.10;101904.59;5093598;28;20154;-70
2022/01/06 09:35:55;;;;;;;6.40;2.38;;;;;;;4.03;84.02;101903.00;5094329;28;20031;-67
2022/01/06 09:38:21;;;;;;;10.30;2.83;;;;;;;4.13;83.84;101910.78;5075900;28;20055;-67
2022/01/06 09:40:46;;;;;;;10.25;3.20;;;;;;;4.05;83.65;101909.59;5075678;28;20031;-67
2022/01/06 09:43:13;;;;;;;9.82;2.63;;;;;;;4.10;82.53;101900.78;5093902;28;20047;-68
2022/01/06 09:45:41;;;;;;;11.50;2.70;;;;;;;4.24;82.34;101913.31;5075798;28;20020;-67
2022/01/06 09:48:06;;;;;;;13.65;2.80;;;;;;;4.26;83.30;101911.47;5093749;28;20031;-67
2022/01/06 09:50:32;;;;;;;10.20;2.53;;;;;;;4.25;82.43;101915.75;5075652;28;20467;-67
2022/01/06 09:52:58;;;;;;;11.60;2.90;;;;;;;4.42;81.06;101918.78;5093621;28;20027;-67
2022/01/06 09:55:24;;;;;;;14.05;2.88;;;;;;;4.32;83.11;101918.69;5093471;28;20386;-67
2022/01/06 09:57:57;;;;;;;13.02;3.08;;;;;;;4.34;83.22;101915.97;5093568;28;20086;-67
2022/01/06 10:00:24;;;;;;;;;;;;;;;4.39;82.57;101914.69;5076076;28;20019;-67
2022/01/06 10:02:56;;;;;;;16.65;3.20;;;;;;;4.43;82.08;101915.25;5092220;28;19978;-67
2022/01/06 10:05:22;;;;;;;22.33;3.10;;;;;;;4.50;82.42;101914.69;5092963;28;20020;-66
2022/01/06 10:07:47;;;;;;;13.82;3.17;;;;;;;4.55;81.44;101908.41;5093831;28;20493;-67
2022/01/06 10:10:14;;;;;;;15.55;3.38;;;;;;;4.81;80.43;101912.28;5075224;28;20028;-67
2022/01/06 10:12:41;;;;;;;8.63;2.80;;;;;;;4.84;80.55;101906.91;5093947;28;20037;-67
2022/01/06 10:15:20;;;;;;;12.27;3.40;;;;;;;6.71;74.59;101901.63;5093402;28;20031;-67
2022/01/06 10:17:46;;;;;;;7.72;2.30;;;;;;;11.76;57.24;101903.81;5093198;28;20032;-66
2022/01/06 10:20:26;;;;;;;8.88;2.80;;;;;;;13.63;51.06;101903.50;5075305;28;20031;-67
2022/01/06 10:22:53;;;;;;;15.40;3.08;;;;;;;14.63;47.20;101895.06;5094015;28;20055;-67
2022/01/06 10:25:21;;;;;;;12.30;2.72;;;;;;;15.53;44.31;101896.09;5074931;28;20016;-68
2022/01/06 10:27:49;;;;;;;12.57;3.30;;;;;;;15.89;42.52;101891.69;5075235;28;20111;-68
2022/01/06 10:30:14;;;;;;;14.30;3.15;;;;;;;16.34;41.10;101894.63;5075096;28;20024;-68
2022/01/06 10:32:42;;;;;;;12.90;3.17;;;;;;;17.43;38.79;101894.22;5075215;28;20031;-68
2022/01/06 10:35:09;;;;;;;20.15;3.22;;;;;;;17.27;39.34;101892.06;5093038;28;20028;-67
2022/01/06 10:37:40;;;;;;;12.35;3.15;;;;;;;17.34;38.99;101890.22;5075113;28;20363;-67
2022/01/06 10:40:10;;;;;;;12.20;2.92;;;;;;;15.92;42.44;101881.69;5093918;28;20348;-68
2022/01/06 10:42:37;;;;;;;12.32;3.13;;;;;;;16.21;41.67;101880.56;5075090;28;20095;-67
2022/01/06 10:45:12;;;;;;;13.27;3.28;;;;;;;16.85;40.49;101886.25;5093680;28;20023;-68
2022/01/06 10:47:39;;;;;;;12.82;3.40;;;;;;;17.19;40.17;101887.03;5063228;28;20024;-67
2022/01/06 10:50:08;;;;;;;11.70;3.38;;;;;;;16.65;41.06;101881.81;5097088;28;20478;-68
2022/01/06 10:52:34;;;;;;;13.65;3.00;;;;;;;17.41;39.69;101888.41;5098051;28;20058;-68
2022/01/06 10:55:28;;;;;;;15.48;3.30;;;;;;;16.78;40.08;101865.41;5096767;28;20115;-68
2022/01/06 10:58:22;;;;;;;13.30;3.25;;;;;;;16.21;42.16;101892.81;5079942;28;20410;-68
2022/01/06 11:00:53;;;;;;;10.93;2.80;;;;;;;12.42;51.97;101888.78;5079415;28;20028;-69
2022/01/06 11:03:21;;;;;;;11.70;2.90;;;;;;;10.09;58.29;101887.78;5096944;28;20036;-68
2022/01/06 11:05:51;;;;;;;10.82;2.65;;;;;;;8.80;62.02;101891.06;5096545;28;20016;-66
2022/01/06 11:08:20;;;;;;;14.50;3.17;;;;;;;8.30;63.66;101888.09;5095712;28;20024;-67
2022/01/06 11:10:51;;;;;;;13.95;2.65;;;;;;;7.50;67.60;101886.94;5095944;28;20470;-66
2022/01/06 11:13:17;;;;;;;13.40;2.65;;;;;;;7.39;68.70;101877.63;5096378;28;20027;-66
2022/01/06 11:15:43;;;;;;;10.77;2.70;;;;;;;7.07;70.42;101876.19;5095372;28;20078;-68
2022/01/06 11:18:09;;;;;;;12.20;2.67;;;;;;;7.37;69.78;101876.97;5094270;28;20064;-66
2022/01/06 11:20:35;;;;;;;16.50;2.38;;;;;;;7.34;69.62;101884.97;5093476;28;20046;-67
2022/01/06 11:23:01;;;;;;;12.35;2.75;;;;;;;7.14;70.89;101891.91;5094668;28;20020;-66
2022/01/06 11:25:37;;;;;;;18.45;3.22;;;;;;;7.22;69.32;101890.28;5076893;28;20023;-66
2022/01/06 11:28:07;;;;;;;8.95;2.53;;;;;;;7.22;69.69;101879.97;5075559;28;20024;-67
2022/01/06 11:30:48;;;;;;;18.30;2.92;;;;;;;7.73;68.42;101885.66;5075514;28;20059;-67